Time;durP1;ratioP1;P1;durP2;ratioP2;P2;SDS_P1;SDS_P2;PMS_P1;PMS_P2;Temp;Humidity;BMP_temperature;BMP_pressure;BME280_temperature;BME280_humidity;BME280_pressure;Samples;Min_cycle;Max_cycle;Signal;HPM_P1;HPM_P2
2022/03/02 00:00:49;;;;;;;35.78;20.95;;;;;;;10.46;46.64;101756.22;5013721;28;20054;-66
2022/03/02 00:03:17;;;;;;;33.13;21.15;;;;;;;10.49;46.39;101758.44;5000072;28;20042;-66
2022/03/02 00:05:44;;;;;;;32.60;20.58;;;;;;;10.62;46.10;101765.19;5012493;28;20512;-65
2022/03/02 00:08:12;;;;;;;33.90;20.23;;;;;;;10.85;45.83;101750.66;5017522;28;20046;-66
2022/03/02 00:10:39;;;;;;;30.83;19.75;;;;;;;10.54;46.02;101750.13;5018014;28;20050;-64
2022/03/02 00:13:06;;;;;;;35.53;21.10;;;;;;;10.56;45.78;101741.56;5004507;28;20683;-67
2022/03/02 00:15:34;;;;;;;32.33;20.30;;;;;;;10.40;46.19;101742.78;5016684;28;20505;-65
2022/03/02 00:18:02;;;;;;;31.33;20.60;;;;;;;10.44;46.16;101741.13;5003192;28;20065;-65
2022/03/02 00:20:29;;;;;;;32.67;19.90;;;;;;;10.33;46.27;101737.63;5017583;28;20050;-66
2022/03/02 00:22:57;;;;;;;33.78;19.58;;;;;;;10.45;46.15;101735.31;5008024;28;20054;-66
2022/03/02 00:25:24;;;;;;;31.48;19.45;;;;;;;10.72;45.36;101735.63;5017041;28;20685;-65
2022/03/02 00:27:51;;;;;;;38.78;20.63;;;;;;;10.47;46.05;101738.63;5005466;28;20065;-66
2022/03/02 00:30:19;;;;;;;32.20;19.00;;;;;;;10.53;46.14;101731.13;5009559;28;20046;-66
2022/03/02 00:32:48;;;;;;;32.67;17.83;;;;;;;10.33;46.18;101734.88;5019765;28;20068;-65
2022/03/02 00:35:15;;;;;;;34.05;19.95;;;;;;;10.53;45.75;101725.63;5010051;28;20050;-66
2022/03/02 00:37:43;;;;;;;33.22;19.60;;;;;;;10.42;45.86;101730.41;5010729;28;20053;-65
2022/03/02 00:40:10;;;;;;;30.05;18.50;;;;;;;10.34;45.91;101717.22;5017236;28;20512;-66
2022/03/02 00:42:37;;;;;;;28.90;18.10;;;;;;;10.40;45.79;101729.03;5016845;28;20053;-66
2022/03/02 00:45:05;;;;;;;32.05;19.17;;;;;;;10.22;46.35;101729.72;5017273;28;20057;-66
2022/03/02 00:47:33;;;;;;;34.05;19.63;;;;;;;10.42;45.84;101735.91;5016125;28;20046;-65
2022/03/02 00:50:00;;;;;;;31.92;18.67;;;;;;;10.52;45.82;101732.22;5017529;28;20050;-67
2022/03/02 00:52:28;;;;;;;29.65;18.85;;;;;;;10.61;45.24;101731.34;5013897;28;20047;-66
2022/03/02 00:54:55;;;;;;;35.38;19.20;;;;;;;10.47;45.82;101733.09;5017221;28;20061;-66
2022/03/02 00:57:23;;;;;;;29.58;19.20;;;;;;;10.30;46.27;101724.44;5023655;28;20047;-66
2022/03/02 00:59:51;;;;;;;33.47;20.38;;;;;;;10.46;46.11;101725.13;4998222;28;20054;-67
2022/03/02 01:02:18;;;;;;;35.15;19.95;;;;;;;10.49;45.94;101721.78;5016534;28;20054;-65
2022/03/02 01:04:45;;;;;;;31.33;19.33;;;;;;;10.44;46.42;101730.09;5018899;28;20138;-65
2022/03/02 01:07:13;;;;;;;30.98;19.17;;;;;;;10.57;45.85;101721.16;4983472;28;20050;-66
2022/03/02 01:09:41;;;;;;;38.17;20.15;;;;;;;10.42;46.25;101727.63;5014687;28;20050;-65
2022/03/02 01:12:08;;;;;;;34.90;20.73;;;;;;;10.30;46.46;101715.34;5012203;28;20047;-67
2022/03/02 01:14:35;;;;;;;32.30;20.52;;;;;;;10.41;46.31;101714.16;5017669;28;20058;-65
2022/03/02 01:17:03;;;;;;;32.88;21.08;;;;;;;10.30;46.39;101718.94;5015848;28;20521;-66
2022/03/02 01:19:31;;;;;;;36.95;21.15;;;;;;;10.24;46.42;101722.81;5016319;28;20053;-66
2022/03/02 01:21:58;;;;;;;36.25;21.08;;;;;;;10.24;46.40;101714.56;5015722;28;20045;-64
2022/03/02 01:24:25;;;;;;;34.58;19.73;;;;;;;10.10;46.68;101714.38;5015413;28;20046;-67
2022/03/02 01:26:53;;;;;;;38.58;21.50;;;;;;;9.99;47.11;101715.53;5016769;28;20065;-64
2022/03/02 01:29:20;;;;;;;44.10;21.67;;;;;;;10.19;46.71;101720.94;5015193;28;20041;-67
2022/03/02 01:31:47;;;;;;;33.00;22.00;;;;;;;10.37;46.37;101715.84;5016867;28;20062;-66
2022/03/02 01:34:15;;;;;;;32.78;20.30;;;;;;;10.43;46.13;101704.47;5010341;28;20077;-65
2022/03/02 01:36:42;;;;;;;35.65;21.23;;;;;;;10.36;46.25;101704.00;5008588;28;20521;-66
2022/03/02 01:39:09;;;;;;;36.08;21.80;;;;;;;10.37;46.28;101696.56;5017865;28;20072;-66
2022/03/02 01:41:37;;;;;;;32.45;20.30;;;;;;;10.25;46.05;101696.09;5032908;28;20050;-65
2022/03/02 01:44:04;;;;;;;33.45;20.85;;;;;;;10.28;46.16;101696.34;5003225;28;20057;-65
2022/03/02 01:46:32;;;;;;;32.88;20.88;;;;;;;10.08;46.34;101696.47;5010952;28;20437;-66
2022/03/02 01:49:00;;;;;;;38.15;21.45;;;;;;;10.33;46.25;101695.47;5016420;28;20057;-66
2022/03/02 01:51:27;;;;;;;32.08;20.02;;;;;;;10.30;45.98;101690.56;5015856;28;20060;-65
2022/03/02 01:53:55;;;;;;;33.70;21.27;;;;;;;10.23;46.10;101690.06;5014462;28;20053;-64
2022/03/02 01:56:22;;;;;;;41.33;21.38;;;;;;;10.11;45.99;101691.25;5014714;28;20049;-67
2022/03/02 01:58:49;;;;;;;34.33;20.45;;;;;;;9.96;46.45;101685.81;5015705;28;20484;-66
2022/03/02 02:01:17;;;;;;;34.50;21.20;;;;;;;10.05;46.08;101677.78;5016290;28;20049;-66
2022/03/02 02:03:45;;;;;;;35.97;20.83;;;;;;;10.11;46.56;101685.72;5016342;28;20046;-65
2022/03/02 02:06:13;;;;;;;33.20;19.77;;;;;;;10.18;46.18;101685.44;4998424;28;20045;-64
2022/03/02 02:08:41;;;;;;;34.03;20.55;;;;;;;10.29;45.97;101677.91;5015770;28;20045;-66
2022/03/02 02:11:10;;;;;;;35.85;19.90;;;;;;;10.40;45.62;101679.44;5015496;28;20045;-66
2022/03/02 02:13:38;;;;;;;38.78;21.23;;;;;;;10.38;45.68;101671.47;5015257;28;20568;-65
2022/03/02 02:16:06;;;;;;;33.20;20.67;;;;;;;10.62;44.96;101663.25;5015326;28;20053;-65
2022/03/02 02:18:34;;;;;;;32.47;20.30;;;;;;;10.31;45.59;101657.22;5014407;28;20057;-65
2022/03/02 02:21:06;;;;;;;31.85;20.85;;;;;;;10.04;46.40;101659.63;4998178;28;20046;-65
2022/03/02 02:23:34;;;;;;;34.83;20.77;;;;;;;10.08;46.51;101650.53;5027503;28;20428;-65
2022/03/02 02:26:02;;;;;;;36.25;21.75;;;;;;;10.16;46.28;101651.84;5005445;28;20046;-65
2022/03/02 02:28:33;;;;;;;33.63;20.08;;;;;;;10.26;45.86;101649.00;5014600;28;20506;-64
2022/03/02 02:31:01;;;;;;;38.80;21.40;;;;;;;10.16;46.22;101649.09;4990931;28;20058;-67
2022/03/02 02:33:29;;;;;;;40.22;21.00;;;;;;;10.21;46.18;101646.31;5007169;28;20042;-66
2022/03/02 02:35:57;;;;;;;32.65;20.40;;;;;;;10.17;46.05;101636.97;5002156;28;20053;-65
2022/03/02 02:38:25;;;;;;;34.17;21.05;;;;;;;10.08;46.48;101641.41;5007191;28;20069;-66
2022/03/02 02:40:53;;;;;;;33.35;21.73;;;;;;;10.10;46.27;101640.06;5007147;28;20401;-65
2022/03/02 02:43:23;;;;;;;32.70;20.73;;;;;;;10.32;45.95;101631.31;4985401;28;20057;-65
2022/03/02 02:45:52;;;;;;;33.17;21.40;;;;;;;10.20;45.95;101633.63;5012221;28;20054;-66
2022/03/02 02:48:22;;;;;;;30.15;20.48;;;;;;;10.11;46.37;101618.88;5003798;28;20092;-65
2022/03/02 02:50:54;;;;;;;34.22;20.95;;;;;;;9.79;47.05;101615.78;5010563;28;20065;-65
2022/03/02 02:53:21;;;;;;;34.00;22.20;;;;;;;9.74;46.87;101615.81;5010316;28;20076;-66
2022/03/02 02:55:50;;;;;;;36.72;22.35;;;;;;;9.76;47.26;101608.91;5012692;28;20056;-65
2022/03/02 02:58:18;;;;;;;37.17;20.63;;;;;;;9.61;47.43;101609.03;4996045;28;20057;-65
2022/03/02 03:00:48;;;;;;;35.28;20.50;;;;;;;9.71;47.07;101603.44;4994754;28;20047;-65
2022/03/02 03:03:16;;;;;;;33.97;21.52;;;;;;;9.78;47.11;101609.44;5038615;28;20056;-66
2022/03/02 03:05:46;;;;;;;34.65;21.63;;;;;;;9.73;47.08;101606.72;5008786;28;20046;-66
2022/03/02 03:08:14;;;;;;;33.90;21.90;;;;;;;10.03;46.84;101605.69;5002907;28;20442;-67
2022/03/02 03:10:45;;;;;;;31.55;20.02;;;;;;;10.02;46.81;101599.34;5003455;28;20493;-66
2022/03/02 03:13:14;;;;;;;33.97;20.50;;;;;;;9.88;46.88;101592.88;5005401;28;20053;-65
2022/03/02 03:15:42;;;;;;;38.45;22.38;;;;;;;10.10;46.19;101595.19;5006931;28;20046;-65
2022/03/02 03:18:10;;;;;;;34.35;20.30;;;;;;;9.93;46.18;101600.25;5007090;28;20046;-65
2022/03/02 03:20:37;;;;;;;33.92;20.83;;;;;;;9.85;46.82;101596.19;5006316;28;20042;-65
2022/03/02 03:23:06;;;;;;;33.75;20.55;;;;;;;9.97;46.58;101593.88;5000920;28;20065;-65
2022/03/02 03:25:33;;;;;;;34.85;22.05;;;;;;;9.89;46.35;101589.00;5012485;28;20072;-66
2022/03/02 03:28:02;;;;;;;31.02;20.30;;;;;;;9.72;47.16;101593.28;5020977;28;20053;-65
2022/03/02 03:30:29;;;;;;;34.63;22.13;;;;;;;9.88;46.90;101590.13;4995526;28;20050;-67
2022/03/02 03:32:58;;;;;;;39.75;22.40;;;;;;;9.94;46.74;101596.38;5007778;28;20069;-65
2022/03/02 03:35:26;;;;;;;33.03;21.40;;;;;;;9.79;47.07;101597.34;5012975;28;20057;-65
2022/03/02 03:37:54;;;;;;;36.10;21.40;;;;;;;9.81;47.19;101591.56;5014125;28;20398;-65
2022/03/02 03:40:22;;;;;;;35.60;22.00;;;;;;;9.71;47.25;101589.69;5013866;28;20057;-66
2022/03/02 03:42:50;;;;;;;36.65;22.35;;;;;;;9.73;47.57;101592.97;5011902;28;20409;-65
2022/03/02 03:45:18;;;;;;;34.33;21.83;;;;;;;9.88;47.33;101579.13;4999772;28;20084;-65
2022/03/02 03:47:46;;;;;;;37.88;21.75;;;;;;;9.86;47.16;101584.09;4997176;28;20054;-65
2022/03/02 03:50:13;;;;;;;32.17;20.83;;;;;;;10.08;46.83;101578.09;5014846;28;20058;-65
2022/03/02 03:52:41;;;;;;;30.48;20.23;;;;;;;9.92;47.05;101576.63;5008157;28;20525;-65
2022/03/02 03:55:10;;;;;;;36.20;21.23;;;;;;;10.13;46.81;101569.81;5005663;28;20429;-65
2022/03/02 03:57:37;;;;;;;34.05;21.38;;;;;;;9.79;47.23;101561.59;4989004;28;20043;-66
2022/03/02 04:00:08;;;;;;;34.97;20.92;;;;;;;9.74;47.41;101574.56;4999341;28;20422;-66
2022/03/02 04:02:35;;;;;;;35.00;21.58;;;;;;;9.85;47.10;101571.41;5003900;28;20050;-64
2022/03/02 04:05:03;;;;;;;36.47;22.92;;;;;;;9.79;47.11;101572.59;5005523;28;20409;-64
2022/03/02 04:07:30;;;;;;;37.22;21.55;;;;;;;9.68;47.59;101570.19;5009187;28;20061;-65
2022/03/02 04:09:58;;;;;;;32.10;21.70;;;;;;;9.83;47.01;101570.09;5009557;28;20053;-64
2022/03/02 04:12:25;;;;;;;32.53;21.50;;;;;;;9.91;46.98;101573.03;5013322;28;20057;-65
2022/03/02 04:14:53;;;;;;;37.08;23.20;;;;;;;9.55;47.69;101573.59;5011187;28;20069;-64
2022/03/02 04:17:20;;;;;;;36.25;21.13;;;;;;;9.72;47.63;101568.50;5015430;28;20060;-66
2022/03/02 04:19:47;;;;;;;36.65;21.95;;;;;;;9.74;47.49;101567.13;5011109;28;20048;-65
2022/03/02 04:22:15;;;;;;;35.42;21.85;;;;;;;9.66;47.65;101564.97;5016417;28;20058;-65
2022/03/02 04:24:42;;;;;;;32.33;20.85;;;;;;;9.52;48.03;101566.72;5004866;28;20516;-65
2022/03/02 04:27:10;;;;;;;34.95;22.17;;;;;;;9.45;47.80;101563.47;5039120;28;20052;-64
2022/03/02 04:29:37;;;;;;;33.20;21.85;;;;;;;9.55;47.38;101555.16;5013601;28;20052;-65
2022/03/02 04:32:05;;;;;;;35.63;22.02;;;;;;;9.45;47.78;101555.22;5016425;28;20049;-66
2022/03/02 04:34:33;;;;;;;37.78;21.35;;;;;;;9.62;47.35;101557.59;5015268;28;20393;-65
2022/03/02 04:37:00;;;;;;;32.42;21.63;;;;;;;9.64;47.26;101547.94;4996740;28;20053;-66
2022/03/02 04:39:28;;;;;;;32.05;20.20;;;;;;;9.61;47.13;101543.00;5009853;28;20515;-65
2022/03/02 04:41:55;;;;;;;33.28;21.55;;;;;;;9.43;47.25;101534.63;5004979;28;20069;-65
2022/03/02 04:44:22;;;;;;;33.97;21.55;;;;;;;9.38;47.58;101545.66;5008100;28;20045;-66
2022/03/02 04:46:51;;;;;;;35.30;21.45;;;;;;;9.46;47.58;101537.63;5009074;28;20053;-67
2022/03/02 04:49:19;;;;;;;32.42;20.70;;;;;;;9.37;47.62;101541.25;5008908;28;20050;-66
2022/03/02 04:51:47;;;;;;;36.78;21.58;;;;;;;9.23;47.83;101540.25;5011737;28;20064;-67
2022/03/02 04:57:04;;;;;;;32.33;20.75;;;;;;;9.24;47.85;101545.47;5009404;28;20062;-66
2022/03/02 04:59:31;;;;;;;35.78;22.30;;;;;;;9.27;47.83;101539.41;5010730;28;20051;-65
2022/03/02 05:01:59;;;;;;;36.88;21.70;;;;;;;9.20;48.32;101541.66;5022068;28;20057;-65
2022/03/02 05:04:26;;;;;;;35.47;21.80;;;;;;;9.25;47.85;101540.78;5010104;28;20050;-65
2022/03/02 05:06:54;;;;;;;35.10;21.23;;;;;;;9.33;47.51;101537.47;5007601;28;20046;-66
2022/03/02 05:09:21;;;;;;;36.25;21.45;;;;;;;9.14;47.92;101526.28;5003341;28;20045;-66
2022/03/02 05:11:48;;;;;;;34.45;20.92;;;;;;;9.22;48.08;101530.38;5010419;28;20050;-67
2022/03/02 05:14:16;;;;;;;35.33;21.40;;;;;;;9.44;47.38;101526.09;5008306;28;20050;-65
2022/03/02 05:16:43;;;;;;;34.60;21.92;;;;;;;9.48;47.16;101532.66;5008485;28;20521;-65
2022/03/02 05:19:11;;;;;;;39.20;20.88;;;;;;;9.20;47.78;101538.91;5012668;28;20049;-65
2022/03/02 05:21:38;;;;;;;35.03;21.77;;;;;;;9.09;47.88;101534.56;5008188;28;20046;-66
2022/03/02 05:24:06;;;;;;;36.25;21.45;;;;;;;9.06;48.47;101524.16;5013436;28;20049;-66
2022/03/02 05:26:33;;;;;;;37.10;21.05;;;;;;;9.04;48.40;101515.38;5006016;28;20073;-66
2022/03/02 05:29:01;;;;;;;36.35;21.73;;;;;;;9.04;48.42;101526.34;5005163;28;20046;-65
2022/03/02 05:31:28;;;;;;;36.35;21.98;;;;;;;8.95;48.82;101525.31;5006392;28;20053;-65
2022/03/02 05:33:56;;;;;;;32.03;21.23;;;;;;;8.87;48.72;101514.91;5005821;28;20069;-65
2022/03/02 05:36:24;;;;;;;35.25;22.08;;;;;;;9.07;48.54;101512.88;5004136;28;20049;-66
2022/03/02 05:38:52;;;;;;;34.50;21.77;;;;;;;9.12;48.43;101506.50;5007889;28;20057;-67
2022/03/02 05:41:20;;;;;;;40.90;22.38;;;;;;;9.03;48.73;101509.03;5004622;28;20053;-65
2022/03/02 05:43:48;;;;;;;34.63;22.02;;;;;;;9.19;48.63;101507.00;5007714;28;20048;-65
2022/03/02 05:46:15;;;;;;;36.25;21.27;;;;;;;9.23;48.32;101504.53;5008633;28;20682;-65
2022/03/02 05:48:43;;;;;;;31.30;20.50;;;;;;;9.14;48.24;101507.06;5005236;28;20058;-67
2022/03/02 05:51:10;;;;;;;33.15;20.88;;;;;;;9.21;48.13;101510.31;5007461;28;20054;-67
2022/03/02 05:53:37;;;;;;;37.05;21.85;;;;;;;8.94;48.48;101504.44;5009826;28;20054;-66
2022/03/02 05:56:06;;;;;;;35.15;21.25;;;;;;;8.83;49.02;101508.34;5009610;28;20046;-66
2022/03/02 05:58:33;;;;;;;35.20;21.67;;;;;;;8.92;49.11;101512.97;5009122;28;20448;-66
2022/03/02 06:01:01;;;;;;;36.15;21.63;;;;;;;9.13;48.59;101514.47;5030152;28;20057;-68
2022/03/02 06:03:29;;;;;;;34.58;21.83;;;;;;;9.05;48.71;101515.06;5003226;28;20061;-67
2022/03/02 06:05:57;;;;;;;34.92;21.63;;;;;;;9.23;48.64;101512.75;5006598;28;20046;-68
2022/03/02 06:08:24;;;;;;;36.33;20.98;;;;;;;9.01;48.45;101514.00;5004764;28;20532;-67
2022/03/02 06:10:51;;;;;;;37.28;20.55;;;;;;;9.09;48.49;101516.16;5006283;28;20516;-65
2022/03/02 06:13:19;;;;;;;31.25;20.27;;;;;;;9.14;48.29;101512.53;5003134;28;20042;-66
2022/03/02 06:15:47;;;;;;;34.03;21.02;;;;;;;9.20;48.38;101514.16;5037913;28;20053;-66
2022/03/02 06:18:14;;;;;;;34.58;21.38;;;;;;;9.02;48.60;101512.06;5009174;28;20062;-65
2022/03/02 06:20:42;;;;;;;34.33;21.48;;;;;;;8.91;48.60;101505.81;5013147;28;20045;-65
2022/03/02 06:23:10;;;;;;;35.35;20.83;;;;;;;8.97;48.76;101509.34;5011211;28;20057;-67
2022/03/02 06:25:38;;;;;;;33.83;21.40;;;;;;;8.98;49.05;101509.06;5013816;28;20044;-65
2022/03/02 06:28:05;;;;;;;34.00;22.17;;;;;;;8.85;49.05;101501.47;5015016;28;20046;-65
2022/03/02 06:30:32;;;;;;;40.90;21.08;;;;;;;8.81;48.94;101507.78;5016810;28;20049;-66
2022/03/02 06:33:00;;;;;;;33.53;20.73;;;;;;;8.62;49.70;101501.28;5015660;28;20497;-66
2022/03/02 06:35:27;;;;;;;34.05;20.65;;;;;;;8.81;49.63;101496.81;5031635;28;20046;-66
2022/03/02 06:37:55;;;;;;;34.38;22.20;;;;;;;8.77;49.52;101498.50;5015248;28;20050;-65
2022/03/02 06:40:23;;;;;;;40.75;22.38;;;;;;;8.76;49.72;101499.56;5036374;28;20686;-66
2022/03/02 06:43:02;;;;;;;30.75;20.05;;;;;;;8.75;49.41;101506.19;5009116;28;20041;-65
2022/03/02 06:45:55;;;;;;;31.35;19.88;;;;;;;8.91;48.86;101505.81;5014471;28;20054;-66
2022/03/02 06:48:34;;;;;;;35.22;21.75;;;;;;;8.89;49.15;101504.47;5013109;28;20060;-65
2022/03/02 06:51:01;;;;;;;31.50;20.83;;;;;;;8.67;49.76;101509.50;5009739;28;20065;-65
2022/03/02 06:53:35;;;;;;;34.65;20.77;;;;;;;8.68;50.03;101520.19;5006849;28;20057;-65
2022/03/02 06:56:06;;;;;;;35.70;21.60;;;;;;;8.94;48.99;101513.47;5000296;28;20050;-66
2022/03/02 06:58:39;;;;;;;33.65;21.85;;;;;;;8.92;49.48;101512.97;5005740;28;20050;-64
2022/03/02 07:01:09;;;;;;;37.28;21.58;;;;;;;8.90;48.90;101512.44;5007201;28;20069;-66
2022/03/02 07:03:45;;;;;;;35.45;21.85;;;;;;;8.75;49.43;101515.22;5010401;28;20046;-66
2022/03/02 07:06:14;;;;;;;32.78;20.70;;;;;;;8.89;49.26;101520.94;5012856;28;20042;-65
2022/03/02 07:08:43;;;;;;;35.78;20.55;;;;;;;8.71;49.92;101519.66;5008034;28;20061;-65
2022/03/02 07:11:11;;;;;;;34.40;20.65;;;;;;;8.71;49.57;101524.31;5015519;28;20061;-66
2022/03/02 07:13:39;;;;;;;37.72;21.08;;;;;;;8.70;49.82;101526.25;5013669;28;20053;-66
2022/03/02 07:16:06;;;;;;;35.28;21.88;;;;;;;8.94;48.97;101527.22;5015724;28;20057;-66
2022/03/02 07:18:34;;;;;;;38.88;24.20;;;;;;;8.68;49.71;101527.63;5028784;28;20069;-66
2022/03/02 07:21:02;;;;;;;35.75;22.75;;;;;;;8.56;50.09;101527.94;4989388;28;20054;-67
2022/03/02 07:23:34;;;;;;;35.97;21.90;;;;;;;8.79;49.75;101527.31;5007945;28;20053;-65
2022/03/02 07:26:02;;;;;;;36.90;21.10;;;;;;;8.84;49.17;101516.28;5013534;28;20489;-66
2022/03/02 07:28:29;;;;;;;38.10;22.50;;;;;;;8.84;49.27;101529.19;5015110;28;20042;-65
2022/03/02 07:30:57;;;;;;;37.33;20.58;;;;;;;9.08;49.58;101525.50;4994688;28;20049;-68
2022/03/02 07:33:25;;;;;;;36.78;20.98;;;;;;;9.17;49.20;101530.41;5014823;28;20055;-69
2022/03/02 07:35:56;;;;;;;36.08;21.08;;;;;;;9.64;48.83;101530.63;5016001;28;20531;-67
2022/03/02 07:38:25;;;;;;;34.78;21.85;;;;;;;9.57;48.22;101527.38;5003662;28;20559;-68
2022/03/02 07:40:53;;;;;;;36.95;21.15;;;;;;;9.65;47.90;101532.25;5013980;28;20041;-68
2022/03/02 07:43:21;;;;;;;35.28;21.13;;;;;;;9.57;48.74;101524.63;5016198;28;20049;-67
2022/03/02 07:45:49;;;;;;;31.83;20.67;;;;;;;9.78;49.09;101520.59;5014614;28;20038;-67
2022/03/02 07:48:17;;;;;;;32.47;20.00;;;;;;;9.86;48.15;101528.22;5017322;28;20477;-68
2022/03/02 07:50:46;;;;;;;32.83;20.45;;;;;;;9.79;47.29;101517.56;5017364;28;20050;-68
2022/03/02 07:53:16;;;;;;;37.05;20.75;;;;;;;9.45;47.80;101515.94;5016701;28;20058;-63
2022/03/02 07:55:44;;;;;;;34.97;21.58;;;;;;;9.32;48.04;101516.56;5023313;28;20492;-64
2022/03/02 07:58:11;;;;;;;39.67;22.77;;;;;;;9.19;48.66;101522.72;5022872;28;20050;-65
2022/03/02 08:00:39;;;;;;;35.03;22.17;;;;;;;8.96;49.15;101522.28;5013205;28;20069;-64
2022/03/02 08:03:08;;;;;;;33.20;21.35;;;;;;;9.27;48.74;101516.59;5013150;28;20041;-64
2022/03/02 08:05:35;;;;;;;34.53;21.85;;;;;;;8.99;49.23;101516.22;5003101;28;20060;-64
2022/03/02 08:08:03;;;;;;;36.28;21.90;;;;;;;8.83;50.47;101522.06;5016473;28;20064;-64
2022/03/02 08:10:30;;;;;;;38.33;21.23;;;;;;;9.03;49.59;101511.00;5032883;28;20064;-64
2022/03/02 08:12:58;;;;;;;44.55;22.25;;;;;;;8.90;49.88;101517.09;5024950;28;20061;-65
2022/03/02 08:15:27;;;;;;;37.35;21.90;;;;;;;8.83;50.28;101511.91;5029606;28;20060;-64
2022/03/02 08:17:55;;;;;;;43.15;22.50;;;;;;;8.90;49.94;101515.16;5022312;28;20050;-65
2022/03/02 08:20:48;;;;;;;37.55;21.73;;;;;;;8.82;50.10;101512.19;5013845;28;20057;-64
2022/03/02 08:23:19;;;;;;;34.65;21.55;;;;;;;9.15;49.35;101521.63;5015544;28;20053;-64
2022/03/02 08:25:54;;;;;;;37.83;22.48;;;;;;;9.19;49.23;101523.50;5014368;28;20056;-66
2022/03/02 08:28:24;;;;;;;36.42;21.75;;;;;;;9.35;48.72;101515.97;5019546;28;20038;-66
2022/03/02 08:30:53;;;;;;;39.05;21.55;;;;;;;9.22;48.73;101508.38;5017605;28;20520;-67
2022/03/02 08:33:27;;;;;;;41.83;21.67;;;;;;;8.93;49.40;101511.84;5020208;28;20049;-66
2022/03/02 08:35:55;;;;;;;34.08;21.75;;;;;;;9.28;49.43;101512.72;5019874;28;20053;-64
2022/03/02 08:38:24;;;;;;;42.90;21.95;;;;;;;9.26;49.06;101517.72;5016549;28;20052;-65
2022/03/02 08:40:52;;;;;;;37.67;23.30;;;;;;;9.18;49.04;101515.53;5015845;28;20045;-66
2022/03/02 08:43:19;;;;;;;39.60;21.85;;;;;;;9.19;49.39;101529.00;5015696;28;20400;-66
2022/03/02 08:45:50;;;;;;;41.05;22.88;;;;;;;9.02;49.64;101525.81;5020710;28;20133;-66
2022/03/02 08:48:19;;;;;;;37.67;21.33;;;;;;;9.12;49.90;101522.19;5021438;28;20057;-65
2022/03/02 08:50:46;;;;;;;41.55;22.50;;;;;;;9.38;48.95;101529.19;5015824;28;20058;-65
2022/03/02 08:53:16;;;;;;;39.50;22.30;;;;;;;9.25;49.40;101522.38;5004419;28;20060;-66
2022/03/02 08:55:44;;;;;;;35.17;22.73;;;;;;;9.30;48.79;101514.09;5014035;28;20064;-64
2022/03/02 08:58:11;;;;;;;36.42;22.50;;;;;;;9.49;48.85;101522.47;5014817;28;20281;-65
2022/03/02 09:00:40;;;;;;;38.25;22.67;;;;;;;9.50;48.34;101518.63;5018817;28;20432;-67
2022/03/02 09:03:13;;;;;;;47.90;23.05;;;;;;;9.64;47.22;101516.88;4997397;28;20518;-66
2022/03/02 09:05:42;;;;;;;39.05;21.38;;;;;;;9.83;46.78;101509.56;5014311;28;20042;-65
2022/03/02 09:08:09;;;;;;;38.58;21.48;;;;;;;9.78;46.50;101507.66;5014390;28;20413;-65
2022/03/02 09:10:36;;;;;;;32.80;21.02;;;;;;;9.64;47.15;101503.13;5004978;28;20054;-66
2022/03/02 09:13:04;;;;;;;37.22;23.02;;;;;;;9.84;46.70;101505.69;5008193;28;20046;-65
2022/03/02 09:15:34;;;;;;;36.65;21.98;;;;;;;9.82;46.76;101502.38;5011510;28;20520;-66
2022/03/02 09:18:01;;;;;;;35.88;22.00;;;;;;;9.69;47.29;101509.38;5015519;28;20054;-67
2022/03/02 09:20:30;;;;;;;41.95;20.90;;;;;;;10.12;46.24;101505.72;5013149;28;20548;-65
2022/03/02 09:23:01;;;;;;;40.75;21.75;;;;;;;10.03;46.41;101501.09;5016142;28;20045;-66
2022/03/02 09:25:29;;;;;;;36.53;21.98;;;;;;;9.94;46.51;101497.31;5023320;28;20058;-65
2022/03/02 09:27:57;;;;;;;39.17;20.70;;;;;;;9.81;46.39;101500.75;5018022;28;20057;-66
2022/03/02 09:30:25;;;;;;;33.85;20.35;;;;;;;9.91;46.39;101497.91;5014525;28;20045;-66
2022/03/02 09:32:54;;;;;;;43.10;25.08;;;;;;;10.30;48.63;101486.78;5013798;28;20539;-68
2022/03/02 09:35:22;;;;;;;37.13;21.63;;;;;;;10.26;46.49;101496.75;5021742;28;20404;-66
2022/03/02 09:37:53;;;;;;;38.92;22.08;;;;;;;10.46;45.90;101496.53;5004472;28;20053;-66
2022/03/02 09:40:25;;;;;;;34.63;21.38;;;;;;;10.31;46.46;101494.75;5014743;28;20049;-66
2022/03/02 09:43:00;;;;;;;40.67;21.77;;;;;;;10.41;46.08;101494.63;5019649;28;20045;-65
2022/03/02 09:45:30;;;;;;;45.45;22.30;;;;;;;10.30;46.57;101498.63;5013043;28;20533;-66
2022/03/02 09:48:03;;;;;;;39.42;20.67;;;;;;;10.49;45.44;101496.75;5014141;28;20042;-65
2022/03/02 09:50:34;;;;;;;42.65;23.52;;;;;;;10.38;46.03;101491.66;5016777;28;20057;-65
2022/03/02 09:53:05;;;;;;;45.15;21.73;;;;;;;10.45;45.81;101495.69;5012890;28;20490;-66
2022/03/02 09:55:35;;;;;;;42.40;23.63;;;;;;;10.44;46.26;101491.31;5008386;28;20485;-65
2022/03/02 09:58:03;;;;;;;41.08;22.98;;;;;;;10.40;46.37;101493.00;5013463;28;20049;-66
2022/03/02 10:00:30;;;;;;;38.25;22.73;;;;;;;10.35;45.88;101490.31;5011375;28;20041;-63
2022/03/02 10:02:59;;;;;;;42.65;22.85;;;;;;;10.07;46.63;101486.47;5011904;28;20045;-63
2022/03/02 10:05:32;;;;;;;34.08;21.80;;;;;;;10.35;46.37;101484.81;5018470;28;20049;-64
2022/03/02 10:08:05;;;;;;;37.55;21.35;;;;;;;10.58;45.90;101483.97;5014271;28;20045;-63
2022/03/02 10:10:36;;;;;;;42.30;21.98;;;;;;;10.68;45.51;101483.84;5026715;28;20065;-62
2022/03/02 10:13:08;;;;;;;35.22;22.15;;;;;;;10.70;45.68;101483.53;5017342;28;20704;-64
2022/03/02 10:15:37;;;;;;;38.00;21.45;;;;;;;10.73;45.65;101483.78;5009857;28;20524;-64
2022/03/02 10:18:08;;;;;;;39.88;21.35;;;;;;;10.83;45.53;101482.81;5015149;28;20375;-65
2022/03/02 10:20:39;;;;;;;35.15;20.48;;;;;;;11.09;44.78;101479.41;5012825;28;20049;-64
2022/03/02 10:23:24;;;;;;;38.55;21.08;;;;;;;11.16;44.63;101477.09;5019805;28;21838;-65
2022/03/02 10:26:03;;;;;;;40.55;21.85;;;;;;;11.15;44.07;101478.22;4991697;28;20057;-65
2022/03/02 10:29:03;;;;;;;32.97;21.27;;;;;;;11.10;44.20;101478.28;5006150;28;20149;-62
2022/03/02 10:31:33;;;;;;;33.47;20.35;;;;;;;11.07;44.38;101478.06;4996509;28;20050;-66
2022/03/02 10:34:16;;;;;;;37.08;21.38;;;;;;;11.37;44.72;101472.06;5007903;28;20045;-66
2022/03/02 10:36:46;;;;;;;37.40;20.85;;;;;;;11.32;44.20;101466.63;5012028;28;20414;-67
2022/03/02 10:39:45;;;;;;;37.90;21.60;;;;;;;11.33;43.21;101458.06;5014801;28;20065;-67
2022/03/02 10:42:17;;;;;;;35.83;20.80;;;;;;;11.47;43.33;101449.84;5012909;28;20066;-68
2022/03/02 10:44:59;;;;;;;34.47;20.55;;;;;;;11.59;42.56;101446.63;5012874;28;20053;-66
2022/03/02 10:47:28;;;;;;;32.13;20.63;;;;;;;11.53;42.09;101450.56;5030035;28;20049;-67
2022/03/02 10:49:59;;;;;;;35.90;20.38;;;;;;;11.77;42.25;101448.53;5033113;28;20065;-66
2022/03/02 10:52:27;;;;;;;33.03;20.52;;;;;;;11.84;42.58;101447.00;5020213;28;20053;-66
2022/03/02 10:54:56;;;;;;;33.33;20.60;;;;;;;11.93;42.13;101436.06;5015676;28;20054;-67
2022/03/02 10:57:25;;;;;;;34.17;20.95;;;;;;;11.76;42.37;101435.84;5019597;28;20042;-65
2022/03/02 10:59:55;;;;;;;35.33;21.05;;;;;;;11.95;42.85;101433.81;5014631;28;20038;-66
2022/03/02 11:02:23;;;;;;;39.75;22.08;;;;;;;12.16;41.77;101429.56;5012217;28;20349;-66
2022/03/02 11:04:54;;;;;;;39.67;22.08;;;;;;;11.71;41.31;101422.97;5011602;28;20046;-67
2022/03/02 11:07:22;;;;;;;34.60;22.52;;;;;;;11.74;42.11;101421.53;5011918;28;20050;-66
2022/03/02 11:09:51;;;;;;;34.47;20.83;;;;;;;11.86;41.80;101424.59;5024603;28;20060;-67
2022/03/02 11:12:20;;;;;;;36.72;21.23;;;;;;;11.96;41.84;101427.19;5013120;28;20054;-66
2022/03/02 11:14:58;;;;;;;34.73;20.63;;;;;;;11.70;42.22;101420.50;5017522;28;20056;-69
2022/03/02 11:17:26;;;;;;;35.55;21.40;;;;;;;12.21;41.41;101415.63;5012508;28;20045;-69
2022/03/02 11:19:56;;;;;;;37.00;22.25;;;;;;;12.04;40.56;101416.25;5019564;28;20049;-68
2022/03/02 11:22:26;;;;;;;44.50;24.63;;;;;;;11.91;41.18;101411.53;5018779;28;20056;-69
2022/03/02 11:24:56;;;;;;;42.83;21.80;;;;;;;11.73;41.19;101415.22;5023927;28;20053;-68